Time;durP1;ratioP1;P1;durP2;ratioP2;P2;SDS_P1;SDS_P2;PMS_P1;PMS_P2;Temp;Humidity;BMP_temperature;BMP_pressure;BME280_temperature;BME280_humidity;BME280_pressure;Samples;Min_cycle;Max_cycle;Signal;HPM_P1;HPM_P2
2022/12/15 00:39:34;;;;;;;1999.90;999.90;;;;;;;-2.37;100.00;96672.19;5050472;28;20055;-76
2022/12/15 00:41:59;;;;;;;1999.90;999.90;;;;;;;-2.36;100.00;96693.38;5050364;28;20470;-75
2022/12/15 00:44:24;;;;;;;1999.90;999.90;;;;;;;-2.27;100.00;96693.75;5051070;28;20025;-76
2022/12/15 00:46:55;;;;;;;1999.90;999.90;;;;;;;-2.43;100.00;96690.03;5050913;28;20458;-76
2022/12/15 01:22:26;;;;;;;1999.90;999.90;;;;;;;-2.18;100.00;96777.97;5033839;28;20037;-75
2022/12/15 01:24:52;;;;;;;1999.90;999.90;;;;;;;-2.32;100.00;96761.41;5033691;28;20033;-77
2022/12/15 01:27:17;;;;;;;1999.90;999.90;;;;;;;-2.31;100.00;96767.56;5048131;28;20682;-76
2022/12/15 01:29:43;;;;;;;1999.90;999.90;;;;;;;-2.36;100.00;96765.66;5053476;28;20024;-75
2022/12/15 01:32:08;;;;;;;1999.90;999.90;;;;;;;-2.39;100.00;96779.53;5052195;28;20033;-77
2022/12/15 01:34:33;;;;;;;1999.90;999.90;;;;;;;-2.52;100.00;96771.78;5053532;28;20032;-75
2022/12/15 01:36:59;;;;;;;1999.90;999.90;;;;;;;-2.50;100.00;96783.06;5053892;28;20017;-75
2022/12/15 01:39:24;;;;;;;1999.90;999.90;;;;;;;-2.43;100.00;96786.41;5053462;28;20040;-77
2022/12/15 01:41:49;;;;;;;1999.90;999.90;;;;;;;-2.44;100.00;96789.31;5053442;28;20021;-76
2022/12/15 01:44:19;;;;;;;1999.90;999.90;;;;;;;-2.46;100.00;96792.25;5054340;28;20036;-77
2022/12/15 01:46:46;;;;;;;1999.90;999.90;;;;;;;-2.53;100.00;96804.94;5054885;28;20492;-77
2022/12/15 01:49:19;;;;;;;1999.90;999.90;;;;;;;-2.58;100.00;96815.59;5053482;28;20021;-75
2022/12/15 01:51:52;;;;;;;1999.90;999.90;;;;;;;-2.68;100.00;96811.91;5053036;28;20036;-76
2022/12/15 01:54:29;;;;;;;1999.90;999.90;;;;;;;-2.77;100.00;96812.28;5054565;28;20033;-76
2022/12/15 01:57:03;;;;;;;1999.90;999.90;;;;;;;-2.78;100.00;96815.19;5053544;28;20488;-77
2022/12/15 01:59:34;;;;;;;1999.90;999.90;;;;;;;-2.85;100.00;96809.97;5053403;28;20057;-74
2022/12/15 02:01:59;;;;;;;1999.90;999.90;;;;;;;-2.76;100.00;96803.19;5053321;28;20033;-75
2022/12/15 02:04:25;;;;;;;1999.90;999.90;;;;;;;-2.73;100.00;96804.59;5051905;28;20039;-75
2022/12/15 02:06:51;;;;;;;1999.90;999.90;;;;;;;-2.76;100.00;96794.38;5053314;28;20041;-76
2022/12/15 02:09:18;;;;;;;1999.90;999.90;;;;;;;-2.76;100.00;96823.81;5052614;28;20037;-77
2022/12/15 02:11:51;;;;;;;1999.90;999.90;;;;;;;-2.78;100.00;96804.50;5054726;28;20382;-75
2022/12/15 02:14:30;;;;;;;1999.90;999.90;;;;;;;-2.83;100.00;96812.44;5054155;28;20021;-80
2022/12/15 02:17:21;;;;;;;1999.90;999.90;;;;;;;-2.85;100.00;96822.56;5054250;28;20079;-77
2022/12/15 02:20:22;;;;;;;1999.90;999.90;;;;;;;-2.87;100.00;96816.63;5058879;28;20151;-77
2022/12/15 02:23:28;;;;;;;1999.90;999.90;;;;;;;-2.85;100.00;96819.91;5053226;28;20049;-75
2022/12/15 02:26:17;;;;;;;1999.90;999.90;;;;;;;-2.77;100.00;96832.88;5032494;28;20035;-75
2022/12/15 02:28:52;;;;;;;1999.90;999.90;;;;;;;-2.66;100.00;96828.53;5035976;28;20093;-75
2022/12/15 02:31:51;;;;;;;1999.90;999.90;;;;;;;-2.69;100.00;96829.81;5067425;28;20523;-77
2022/12/15 02:34:28;;;;;;;1999.90;999.90;;;;;;;-2.62;100.00;96829.66;5069230;28;20107;-77
2022/12/15 02:36:59;;;;;;;1999.90;999.90;;;;;;;-2.61;100.00;96809.88;5064287;28;20029;-75
2022/12/15 02:39:25;;;;;;;1999.90;999.90;;;;;;;-2.69;100.00;96812.97;5063755;28;20028;-77
2022/12/15 02:41:51;;;;;;;1999.90;999.90;;;;;;;-2.71;100.00;96823.91;5063367;28;20131;-75
2022/12/15 02:44:21;;;;;;;1999.90;999.90;;;;;;;-2.75;100.00;96830.75;5062579;28;20021;-76
2022/12/15 02:46:46;;;;;;;1999.90;999.90;;;;;;;-2.67;100.00;96827.72;5062454;28;20016;-77
2022/12/15 02:50:02;;;;;;;1999.90;999.90;;;;;;;-2.79;100.00;96840.34;5063198;28;20046;-75
2022/12/15 02:52:42;;;;;;;1999.90;999.90;;;;;;;-2.75;100.00;96842.28;5050854;28;20044;-75
2022/12/15 02:55:58;;;;;;;1999.90;999.90;;;;;;;-2.70;100.00;96836.22;5051598;28;20032;-74
2022/12/15 02:58:35;;;;;;;1999.90;999.90;;;;;;;-2.61;100.00;96836.66;5043174;28;20053;-75
2022/12/15 03:01:26;;;;;;;1999.90;999.90;;;;;;;-2.66;100.00;96844.59;5052542;28;20024;-75
2022/12/15 03:03:52;;;;;;;1999.90;999.90;;;;;;;-2.78;100.00;96844.63;5051814;28;20036;-76
2022/12/15 03:06:18;;;;;;;1999.90;999.90;;;;;;;-2.78;100.00;96841.94;5052024;28;20049;-75
2022/12/15 03:08:44;;;;;;;1999.90;999.90;;;;;;;-2.76;100.00;96840.66;5052199;28;20071;-76
2022/12/15 03:11:09;;;;;;;1999.90;999.90;;;;;;;-2.87;100.00;96846.06;5053656;28;20495;-77
2022/12/15 03:13:34;;;;;;;1999.90;999.90;;;;;;;-2.84;100.00;96843.72;5051850;28;20448;-76
2022/12/15 03:16:00;;;;;;;1999.90;999.90;;;;;;;-2.83;100.00;96844.53;5052085;28;20029;-76
2022/12/15 03:18:26;;;;;;;1999.90;999.90;;;;;;;-2.74;100.00;96845.78;5053051;28;20017;-74
2022/12/15 03:20:52;;;;;;;1999.90;999.90;;;;;;;-2.61;100.00;96847.34;5051848;28;20459;-74
2022/12/15 03:23:18;;;;;;;1999.90;999.90;;;;;;;-2.63;100.00;96852.94;5051709;28;20032;-74
2022/12/15 03:25:44;;;;;;;1999.90;999.90;;;;;;;-2.81;100.00;96842.41;5051493;28;20477;-74
2022/12/15 03:28:10;;;;;;;1999.90;999.90;;;;;;;-2.89;100.00;96850.84;5051195;28;20470;-75
2022/12/15 03:30:35;;;;;;;1999.90;999.90;;;;;;;-2.84;100.00;96853.59;5051556;28;20033;-76
2022/12/15 03:33:01;;;;;;;1999.90;999.90;;;;;;;-2.89;100.00;96834.78;5051624;28;20029;-76
2022/12/15 03:35:26;;;;;;;1999.90;999.90;;;;;;;-2.82;100.00;96840.81;5051734;28;20024;-76
2022/12/15 03:37:51;;;;;;;1999.90;999.90;;;;;;;-2.93;100.00;96855.03;5051925;28;20028;-74
2022/12/15 03:40:16;;;;;;;1999.90;999.90;;;;;;;-2.94;100.00;96864.09;5052305;28;20057;-75
2022/12/15 03:42:49;;;;;;;1999.90;999.90;;;;;;;-3.01;100.00;96863.44;5053444;28;20037;-74
2022/12/15 03:45:14;;;;;;;1999.90;999.90;;;;;;;-2.94;100.00;96862.22;5051252;28;20021;-74
2022/12/15 03:47:41;;;;;;;1999.90;999.90;;;;;;;-3.09;100.00;96856.59;5051313;28;20196;-75
2022/12/15 03:50:07;;;;;;;1999.90;999.90;;;;;;;-3.06;100.00;96855.28;5051029;28;20115;-75
2022/12/15 03:52:32;;;;;;;1999.90;999.90;;;;;;;-3.17;100.00;96856.16;5051055;28;20062;-78
2022/12/15 03:54:57;;;;;;;1999.90;999.90;;;;;;;-3.16;100.00;96855.09;5051101;28;20499;-75
2022/12/15 03:57:23;;;;;;;1999.90;999.90;;;;;;;-3.20;100.00;96860.09;5050908;28;20503;-75
2022/12/15 03:59:48;;;;;;;1999.90;999.90;;;;;;;-3.20;100.00;96859.28;5050811;28;20070;-76
2022/12/15 04:02:13;;;;;;;1999.90;999.90;;;;;;;-3.18;100.00;96860.69;5050994;28;20478;-75
2022/12/15 04:04:39;;;;;;;1999.90;999.90;;;;;;;-3.19;100.00;96866.25;5050713;28;20163;-76
2022/12/15 04:07:04;;;;;;;1999.90;999.90;;;;;;;-3.30;100.00;96876.75;5051241;28;20025;-74
2022/12/15 04:09:29;;;;;;;1999.90;999.90;;;;;;;-3.34;100.00;96880.91;5051015;28;20029;-75
2022/12/15 04:11:55;;;;;;;1999.90;999.90;;;;;;;-3.40;100.00;96876.50;5050777;28;20163;-76
2022/12/15 04:14:21;;;;;;;1999.90;999.90;;;;;;;-3.42;100.00;96883.97;5050806;28;20025;-75
2022/12/15 04:16:46;;;;;;;1999.90;999.90;;;;;;;-3.38;100.00;96885.09;5050805;28;20397;-76
2022/12/15 04:21:56;;;;;;;1999.90;999.90;;;;;;;-3.41;100.00;96885.56;5050770;28;20051;-75
2022/12/15 05:32:41;;;;;;;1999.90;999.90;;;;;;;-2.26;100.00;96945.19;5050411;28;20052;-75
2022/12/15 05:35:06;;;;;;;1999.90;999.90;;;;;;;-2.21;100.00;96947.16;5049824;28;20061;-74
2022/12/15 05:37:31;;;;;;;1999.90;999.90;;;;;;;-2.17;100.00;96965.19;5049804;28;20013;-74
2022/12/15 05:39:57;;;;;;;1999.90;999.90;;;;;;;-2.08;100.00;96951.41;5049745;28;20111;-76
2022/12/15 05:42:22;;;;;;;1999.90;999.90;;;;;;;-2.09;100.00;96957.78;5049745;28;20063;-75
2022/12/15 05:44:47;;;;;;;1999.90;999.90;;;;;;;-2.00;100.00;96964.38;5047252;28;20124;-74
2022/12/15 05:47:13;;;;;;;1999.90;999.90;;;;;;;-1.90;100.00;96961.91;5040213;28;20066;-74
2022/12/15 05:49:38;;;;;;;1999.90;999.90;;;;;;;-1.85;100.00;96967.38;5029709;28;20049;-74
2022/12/15 05:52:05;;;;;;;1999.90;999.90;;;;;;;-1.87;100.00;96961.41;5043454;28;20677;-76
2022/12/15 05:54:30;;;;;;;1999.90;999.90;;;;;;;-1.88;100.00;96965.97;5053025;28;20110;-74
2022/12/15 05:56:55;;;;;;;1999.90;999.90;;;;;;;-1.87;100.00;96977.50;5056660;28;20479;-75
2022/12/15 05:59:20;;;;;;;1999.90;999.90;;;;;;;-1.95;100.00;96972.53;5052859;28;20025;-75
2022/12/15 06:01:46;;;;;;;1999.90;999.90;;;;;;;-1.82;100.00;96993.69;5052917;28;20473;-74
2022/12/15 06:04:12;;;;;;;1999.90;999.90;;;;;;;-1.82;100.00;96996.34;5052765;28;20074;-78
2022/12/15 06:06:38;;;;;;;1999.90;999.90;;;;;;;-1.82;100.00;96999.84;5052724;28;20073;-75
2022/12/15 06:09:03;;;;;;;1999.90;999.90;;;;;;;-1.95;100.00;96992.09;5053330;28;20923;-76
2022/12/15 06:11:29;;;;;;;1999.90;999.90;;;;;;;-1.98;100.00;96999.81;5056879;28;20028;-76
2022/12/15 06:13:55;;;;;;;1999.90;999.90;;;;;;;-1.83;100.00;97000.09;5053927;28;20032;-77
2022/12/15 06:16:22;;;;;;;1999.90;999.90;;;;;;;-1.81;100.00;97006.00;5052330;28;20029;-77
2022/12/15 06:18:49;;;;;;;1999.90;999.90;;;;;;;-1.84;100.00;96993.09;5052718;28;20509;-76
2022/12/15 06:21:18;;;;;;;1999.90;999.90;;;;;;;-1.71;100.00;97003.50;5052569;28;20025;-76
2022/12/15 06:23:44;;;;;;;1999.90;999.90;;;;;;;-1.72;100.00;96996.50;5052715;28;20029;-76
2022/12/15 06:26:16;;;;;;;1999.90;999.90;;;;;;;-1.78;100.00;97005.53;5052363;28;20033;-76
2022/12/15 06:28:41;;;;;;;1999.90;999.90;;;;;;;-1.78;100.00;97011.69;5051296;28;20036;-75
2022/12/15 06:31:09;;;;;;;1999.90;999.90;;;;;;;-1.74;100.00;97017.41;5052322;28;20041;-77
2022/12/15 06:33:35;;;;;;;1999.90;999.90;;;;;;;-1.73;100.00;97022.53;5052210;28;20397;-78
2022/12/15 06:36:05;;;;;;;1999.90;999.90;;;;;;;-1.70;100.00;97019.38;5052230;28;20036;-78
2022/12/15 06:38:32;;;;;;;1999.90;999.90;;;;;;;-1.70;100.00;97015.88;5054073;28;20028;-78
2022/12/15 06:40:59;;;;;;;1999.90;999.90;;;;;;;-1.74;100.00;97017.41;5040270;28;20099;-79
2022/12/15 06:43:26;;;;;;;1999.90;999.90;;;;;;;-1.63;100.00;97011.97;5031921;28;20049;-75
2022/12/15 06:45:51;;;;;;;1999.90;999.90;;;;;;;-1.62;100.00;97015.47;5032087;28;20029;-78
2022/12/15 06:48:18;;;;;;;1999.90;999.90;;;;;;;-1.62;100.00;97021.63;5035008;28;20505;-78
2022/12/15 06:50:47;;;;;;;1999.90;999.90;;;;;;;-1.74;100.00;97007.50;5033396;28;20021;-76
2022/12/15 06:53:14;;;;;;;1999.90;999.90;;;;;;;-1.61;100.00;97017.09;5032115;28;20025;-77
2022/12/15 06:55:40;;;;;;;1999.90;999.90;;;;;;;-1.76;100.00;97016.84;5031820;28;20108;-76
2022/12/15 06:58:06;;;;;;;1999.90;999.90;;;;;;;-1.65;100.00;97023.97;5030624;28;20056;-77
2022/12/15 07:00:35;;;;;;;1999.90;999.90;;;;;;;-1.60;100.00;97020.59;5031736;28;20108;-77
2022/12/15 07:03:02;;;;;;;1999.90;999.90;;;;;;;-1.56;100.00;97027.91;5030969;28;20504;-77
2022/12/15 07:05:27;;;;;;;1999.90;999.90;;;;;;;-1.44;100.00;97033.22;5032061;28;20056;-78
2022/12/15 07:07:52;;;;;;;1999.90;999.90;;;;;;;-1.28;100.00;97043.94;5031943;28;20068;-77
2022/12/15 07:10:18;;;;;;;1999.90;999.90;;;;;;;-1.30;100.00;97054.09;5031506;28;20036;-77
2022/12/15 07:12:43;;;;;;;1999.90;999.90;;;;;;;-1.30;100.00;97054.09;5031626;28;20022;-78
2022/12/15 07:15:10;;;;;;;1999.90;999.90;;;;;;;-1.23;100.00;97060.13;5031394;28;20048;-77
2022/12/15 07:17:36;;;;;;;1999.90;999.90;;;;;;;-1.26;100.00;97073.22;5031403;28;20021;-77
2022/12/15 07:20:04;;;;;;;1999.90;999.90;;;;;;;-1.44;100.00;97066.19;5031325;28;20113;-78
2022/12/15 07:22:29;;;;;;;1999.90;999.90;;;;;;;-1.25;100.00;97074.81;5031257;28;20389;-77
2022/12/15 07:24:54;;;;;;;1999.90;999.90;;;;;;;-1.34;100.00;97058.31;5031315;28;20033;-76
2022/12/15 07:27:20;;;;;;;1999.90;999.90;;;;;;;-1.20;100.00;97069.56;5029958;28;20394;-76
2022/12/15 07:29:45;;;;;;;1999.90;999.90;;;;;;;-1.31;100.00;97057.84;5030984;28;20032;-78
2022/12/15 07:32:10;;;;;;;1999.90;999.90;;;;;;;-1.08;100.00;97073.78;5031046;28;20040;-76
2022/12/15 07:34:36;;;;;;;1999.90;999.90;;;;;;;-0.95;100.00;97094.13;5031237;28;20112;-76
2022/12/15 07:37:02;;;;;;;1999.90;999.90;;;;;;;-0.95;100.00;97077.22;5029633;28;20112;-77
2022/12/15 07:39:28;;;;;;;1999.90;999.90;;;;;;;-0.81;100.00;97095.41;5031019;28;20028;-78
2022/12/15 07:41:53;;;;;;;1999.90;999.90;;;;;;;-0.87;100.00;97084.84;5030970;28;20025;-75
2022/12/15 07:44:19;;;;;;;1999.90;999.90;;;;;;;-0.95;100.00;97090.63;5030825;28;20032;-76
2022/12/15 07:46:47;;;;;;;1999.90;999.90;;;;;;;-0.86;100.00;97091.84;5030991;28;20025;-77
2022/12/15 07:49:13;;;;;;;1999.90;999.90;;;;;;;-0.75;100.00;97096.31;5030944;28;20021;-76
2022/12/15 07:51:40;;;;;;;1999.90;999.90;;;;;;;-0.68;100.00;97102.31;5030741;28;20017;-77
2022/12/15 07:54:05;;;;;;;1999.90;999.90;;;;;;;-0.61;100.00;97106.47;5030945;28;20041;-77
2022/12/15 07:56:30;;;;;;;1999.90;999.90;;;;;;;-0.65;100.00;97085.72;5030701;28;20036;-77
2022/12/15 07:58:56;;;;;;;1999.90;999.90;;;;;;;-0.45;100.00;97115.56;5029153;28;20033;-77
2022/12/15 08:01:21;;;;;;;1999.90;999.90;;;;;;;-0.39;100.00;97114.59;5030627;28;20025;-78
2022/12/15 08:03:47;;;;;;;1999.90;999.90;;;;;;;-0.35;100.00;97102.31;5030709;28;20494;-76
2022/12/15 08:06:14;;;;;;;1999.90;999.90;;;;;;;-0.23;100.00;97108.38;5030368;28;20140;-77
2022/12/15 08:08:39;;;;;;;1999.90;999.90;;;;;;;-0.21;100.00;97105.44;5031000;28;20036;-77
2022/12/15 08:11:06;;;;;;;1999.90;999.90;;;;;;;-0.09;100.00;97109.63;5030485;28;20022;-78
2022/12/15 08:13:33;;;;;;;1999.90;999.90;;;;;;;-0.05;100.00;97113.47;5030418;28;20536;-78
2022/12/15 08:15:58;;;;;;;1999.90;999.90;;;;;;;-0.11;100.00;97121.69;5029578;28;20031;-77
2022/12/15 08:18:24;;;;;;;1999.90;999.90;;;;;;;-0.06;100.00;97130.63;5030374;28;20461;-78
2022/12/15 08:20:49;;;;;;;1999.90;999.90;;;;;;;-0.06;100.00;97135.19;5030360;28;20071;-78
2022/12/15 08:23:15;;;;;;;1999.90;999.90;;;;;;;-0.07;100.00;97139.78;5030327;28;20829;-75
2022/12/15 08:25:41;;;;;;;1999.90;999.90;;;;;;;-0.02;100.00;97147.91;5030165;28;20467;-77
2022/12/15 08:28:07;;;;;;;1999.90;999.90;;;;;;;-0.01;100.00;97149.53;5030205;28;20056;-78
2022/12/15 08:30:33;;;;;;;1999.90;999.90;;;;;;;-0.02;100.00;97136.31;5030306;28;20030;-77
2022/12/15 08:32:58;;;;;;;1999.90;999.90;;;;;;;-0.15;100.00;97132.13;5030370;28;20056;-77
2022/12/15 08:35:24;;;;;;;1999.90;999.90;;;;;;;-0.25;100.00;97134.66;5030417;28;20030;-78
2022/12/15 08:37:49;;;;;;;1999.90;999.90;;;;;;;-0.28;100.00;97131.69;5030240;28;20103;-78
2022/12/15 08:40:15;;;;;;;1999.90;999.90;;;;;;;-0.36;100.00;97127.53;5038075;28;20055;-77
2022/12/15 08:42:40;;;;;;;1999.90;999.90;;;;;;;-0.28;100.00;97134.38;5050079;28;20618;-77
2022/12/15 08:45:06;;;;;;;1999.90;999.90;;;;;;;-0.32;100.00;97135.91;5050513;28;20025;-76
2022/12/15 08:47:31;;;;;;;1999.90;999.90;;;;;;;-0.31;100.00;97143.69;5052861;28;20056;-80
2022/12/15 08:49:57;;;;;;;1999.90;999.90;;;;;;;-0.24;100.00;97143.53;5055132;28;20480;-77
2022/12/15 08:52:22;;;;;;;1999.90;999.90;;;;;;;-0.18;100.00;97140.69;5050270;28;20025;-75
2022/12/15 08:54:48;;;;;;;1999.90;999.90;;;;;;;0.06;100.00;97149.34;5050027;28;20120;-77
2022/12/15 08:57:13;;;;;;;1999.90;999.90;;;;;;;0.16;100.00;97148.69;5049241;28;20393;-80
2022/12/15 08:59:39;;;;;;;1999.90;999.90;;;;;;;0.17;100.00;97155.66;5045872;28;20128;-78
2022/12/15 09:02:04;;;;;;;1999.90;999.90;;;;;;;0.08;100.00;97163.34;5048272;28;20029;-77
2022/12/15 09:04:30;;;;;;;1999.90;999.90;;;;;;;0.02;100.00;97163.53;5047594;28;20031;-77
2022/12/15 09:06:55;;;;;;;1999.90;999.90;;;;;;;-0.01;100.00;97187.16;5047292;28;21262;-79
2022/12/15 09:09:21;;;;;;;1999.90;999.90;;;;;;;0.09;100.00;97189.16;5048862;28;20059;-76
2022/12/15 09:11:47;;;;;;;1999.90;999.90;;;;;;;0.12;100.00;97201.31;5048340;28;20052;-79
2022/12/15 09:14:13;;;;;;;1999.90;999.90;;;;;;;0.09;100.00;97204.47;5048129;28;20040;-76
2022/12/15 09:16:38;;;;;;;1999.90;999.90;;;;;;;0.10;100.00;97219.53;5049182;28;20025;-77
2022/12/15 09:19:04;;;;;;;1999.90;999.90;;;;;;;0.22;100.00;97213.00;5049308;28;20085;-76
2022/12/15 09:21:30;;;;;;;1999.90;999.90;;;;;;;0.32;100.00;97225.75;5049208;28;20111;-77
2022/12/15 09:24:00;;;;;;;1999.90;999.90;;;;;;;0.36;100.00;97219.66;5049134;28;20029;-77
2022/12/15 09:26:26;;;;;;;1999.90;999.90;;;;;;;0.30;100.00;97227.91;5050570;28;20051;-77
2022/12/15 09:28:53;;;;;;;1999.90;999.90;;;;;;;0.22;100.00;97236.41;5052806;28;20393;-77
2022/12/15 09:31:21;;;;;;;1999.90;999.90;;;;;;;0.32;100.00;97266.09;5050843;28;20021;-78
2022/12/15 09:33:49;;;;;;;1999.90;999.90;;;;;;;0.29;100.00;97240.53;5055870;28;20024;-78
2022/12/15 09:36:14;;;;;;;1999.90;999.90;;;;;;;0.53;100.00;97251.91;5056763;28;20036;-80
2022/12/15 09:38:41;;;;;;;1999.90;999.90;;;;;;;0.77;100.00;97257.84;5056817;28;20041;-75
2022/12/15 09:41:12;;;;;;;1999.90;999.90;;;;;;;0.86;100.00;97261.72;5053714;28;20078;-75
2022/12/15 09:43:49;;;;;;;1999.90;999.90;;;;;;;0.92;100.00;97255.31;5051275;28;20039;-75
2022/12/15 09:46:33;;;;;;;1999.90;999.90;;;;;;;0.92;100.00;97253.44;5052136;28;20025;-75
2022/12/15 09:49:03;;;;;;;1999.90;999.90;;;;;;;1.03;100.00;97247.09;5047222;28;20473;-74
2022/12/15 09:51:56;;;;;;;1999.90;999.90;;;;;;;1.08;100.00;97239.09;5052451;28;20025;-75
2022/12/15 09:54:29;;;;;;;1999.90;999.90;;;;;;;1.03;100.00;97230.94;5059442;28;20047;-75
2022/12/15 09:56:56;;;;;;;1999.90;999.90;;;;;;;1.08;100.00;97227.53;5071476;28;20586;-76
2022/12/15 09:59:47;;;;;;;1999.90;999.90;;;;;;;0.82;100.00;97207.56;5072596;28;20032;-75
2022/12/15 10:02:50;;;;;;;1999.90;999.90;;;;;;;1.00;100.00;97219.91;5067483;28;20102;-75
2022/12/15 10:05:41;;;;;;;1999.90;999.90;;;;;;;1.22;100.00;97211.78;5072386;28;20048;-75
2022/12/15 10:08:07;;;;;;;1999.90;999.90;;;;;;;1.51;100.00;97202.34;5032458;28;20031;-75
2022/12/15 10:10:40;;;;;;;1999.90;999.90;;;;;;;1.75;100.00;97211.72;5047694;28;20037;-75
2022/12/15 10:13:22;;;;;;;1999.90;999.90;;;;;;;1.79;100.00;97195.81;5051566;28;20017;-75
2022/12/15 10:15:54;;;;;;;1999.90;999.90;;;;;;;1.59;100.00;97196.50;5050276;28;20028;-75
2022/12/15 10:18:24;;;;;;;1999.90;999.90;;;;;;;1.53;100.00;97192.16;5043342;28;20040;-73
2022/12/15 10:21:00;;;;;;;1999.90;999.90;;;;;;;2.16;100.00;97181.25;5050178;28;20033;-73
2022/12/15 10:23:26;;;;;;;1999.90;999.90;;;;;;;1.99;100.00;97194.13;5052238;28;21828;-75
2022/12/15 10:26:00;;;;;;;1999.90;999.90;;;;;;;1.88;100.00;97184.31;5052064;28;20087;-76
2022/12/15 10:28:42;;;;;;;1999.90;999.90;;;;;;;1.85;100.00;97189.44;5052126;28;20059;-78
2022/12/15 10:31:42;;;;;;;1999.90;999.90;;;;;;;1.84;100.00;97188.63;5052259;28;20748;-77
2022/12/15 10:34:14;;;;;;;1999.90;999.90;;;;;;;1.91;100.00;97188.41;5053269;28;20049;-76
2022/12/15 10:36:49;;;;;;;1999.90;999.90;;;;;;;1.93;100.00;97176.28;5055609;28;20032;-76
2022/12/15 10:39:14;;;;;;;1999.90;999.90;;;;;;;1.91;100.00;97178.41;5053455;28;20033;-76
2022/12/15 10:41:39;;;;;;;1999.90;999.90;;;;;;;1.89;100.00;97185.94;5050588;28;20485;-78
2022/12/15 10:44:22;;;;;;;1999.90;999.90;;;;;;;1.79;100.00;97183.16;5050451;28;20021;-78
2022/12/15 10:46:54;;;;;;;1999.90;999.90;;;;;;;1.72;100.00;97185.28;5052217;28;20025;-76
2022/12/15 10:49:24;;;;;;;1999.90;999.90;;;;;;;1.44;100.00;97197.16;5056043;28;20056;-76
2022/12/15 10:51:56;;;;;;;1999.90;999.90;;;;;;;1.59;100.00;97185.72;5072640;28;20062;-76
2022/12/15 10:54:24;;;;;;;1999.90;999.90;;;;;;;1.52;100.00;97190.50;5074680;28;20044;-77
2022/12/15 10:56:49;;;;;;;1999.90;999.90;;;;;;;1.59;100.00;97201.91;5064982;28;20025;-79
2022/12/15 10:59:32;;;;;;;1999.90;999.90;;;;;;;1.46;100.00;97186.97;5051111;28;20087;-76
2022/12/15 11:02:19;;;;;;;1999.90;999.90;;;;;;;1.52;100.00;97190.50;5051613;28;20037;-76
2022/12/15 11:05:15;;;;;;;1999.90;999.90;;;;;;;1.60;100.00;97192.72;5054640;28;20028;-77
2022/12/15 11:08:08;;;;;;;1999.90;999.90;;;;;;;1.71;100.00;97189.06;5071339;28;20028;-76
2022/12/15 11:13:21;;;;;;;1999.90;999.90;;;;;;;1.79;100.00;97185.88;5071356;28;20055;-75
2022/12/15 11:15:55;;;;;;;1999.90;999.90;;;;;;;1.99;100.00;97185.22;5070661;28;20405;-76
2022/12/15 11:18:45;;;;;;;1999.90;999.90;;;;;;;2.22;100.00;97178.59;5031488;28;20026;-74
2022/12/15 11:21:23;;;;;;;1999.90;999.90;;;;;;;2.11;100.00;97181.25;5048456;28;20028;-76
2022/12/15 11:24:11;;;;;;;1999.90;999.90;;;;;;;2.08;100.00;97170.16;5051639;28;20119;-77
2022/12/15 11:26:54;;;;;;;1999.90;999.90;;;;;;;2.10;100.00;97160.72;5031579;28;20037;-76
2022/12/15 11:29:25;;;;;;;1999.90;999.90;;;;;;;2.30;100.00;97148.44;5032458;28;20112;-75
2022/12/15 11:31:51;;;;;;;1999.90;999.90;;;;;;;2.45;100.00;97151.19;5051281;28;20107;-77
2022/12/15 11:34:20;;;;;;;1999.90;999.90;;;;;;;2.42;100.00;97146.31;5050856;28;20056;-76
2022/12/15 11:36:55;;;;;;;1999.90;999.90;;;;;;;2.46;100.00;97150.94;5051206;28;20490;-75
2022/12/15 11:39:38;;;;;;;1999.90;999.90;;;;;;;2.51;100.00;97150.13;5050351;28;20031;-75
2022/12/15 11:42:09;;;;;;;1999.90;999.90;;;;;;;2.45;100.00;97135.00;5050493;28;20033;-75
2022/12/15 11:44:40;;;;;;;1999.90;999.90;;;;;;;2.49;100.00;97150.41;5050485;28;20029;-75
2022/12/15 11:47:39;;;;;;;1999.90;999.90;;;;;;;2.42;100.00;97147.13;5050791;28;20029;-75
2022/12/15 11:50:20;;;;;;;1999.90;999.90;;;;;;;2.40;100.00;97138.50;5049198;28;20024;-75
2022/12/15 11:53:21;;;;;;;1999.90;999.90;;;;;;;2.41;100.00;97150.13;5049076;28;20025;-74
2022/12/15 11:55:58;;;;;;;1999.90;999.90;;;;;;;2.46;100.00;97152.81;5050371;28;20044;-76
2022/12/15 11:58:45;;;;;;;1999.90;999.90;;;;;;;2.57;100.00;97144.50;5050586;28;20470;-75
2022/12/15 12:01:28;;;;;;;1999.90;999.90;;;;;;;2.54;100.00;97141.50;5050373;28;20029;-75
2022/12/15 12:04:18;;;;;;;1999.90;999.90;;;;;;;2.59;100.00;97136.16;5049712;28;20474;-75
2022/12/15 12:06:46;;;;;;;1999.90;999.90;;;;;;;2.61;100.00;97139.38;5050440;28;20049;-74
2022/12/15 12:09:23;;;;;;;1999.90;999.90;;;;;;;2.58;100.00;97140.72;5049954;28;20064;-75
2022/12/15 12:12:03;;;;;;;1999.90;999.90;;;;;;;2.46;100.00;97144.72;5050788;28;20033;-75
2022/12/15 12:15:04;;;;;;;1999.90;999.90;;;;;;;2.40;100.00;97137.69;5050311;28;20116;-74
2022/12/15 12:17:35;;;;;;;1999.90;999.90;;;;;;;2.39;100.00;97133.34;5049965;28;20043;-75
2022/12/15 12:20:18;;;;;;;1999.90;999.90;;;;;;;2.46;100.00;97150.13;5050257;28;20115;-75
2022/12/15 12:23:03;;;;;;;1999.90;999.90;;;;;;;2.26;100.00;97152.72;5050410;28;20496;-74
2022/12/15 12:25:34;;;;;;;1999.90;999.90;;;;;;;2.28;100.00;97148.72;5050429;28;20115;-75
2022/12/15 12:28:14;;;;;;;1999.90;999.90;;;;;;;2.14;100.00;97151.06;5050304;28;20048;-76
2022/12/15 12:30:44;;;;;;;1999.90;999.90;;;;;;;2.02;100.00;97155.84;5050263;28;20033;-75
2022/12/15 12:33:29;;;;;;;1999.90;999.90;;;;;;;1.73;100.00;97154.56;5050250;28;20025;-75
2022/12/15 12:36:11;;;;;;;1999.90;999.90;;;;;;;1.64;100.00;97156.09;5050189;28;20092;-75
2022/12/15 12:38:45;;;;;;;1999.90;999.90;;;;;;;1.74;100.00;97155.38;5050141;28;20074;-75
2022/12/15 12:41:31;;;;;;;1999.90;999.90;;;;;;;1.92;100.00;97166.56;5050343;28;20056;-75
2022/12/15 12:44:07;;;;;;;1999.90;999.90;;;;;;;1.87;100.00;97157.63;5049743;28;20036;-76
2022/12/15 12:46:39;;;;;;;1999.90;999.90;;;;;;;1.83;100.00;97162.72;5049959;28;20122;-76
2022/12/15 12:49:28;;;;;;;1999.90;999.90;;;;;;;1.83;100.00;97143.84;5049997;28;20037;-77
2022/12/15 12:51:57;;;;;;;1999.90;999.90;;;;;;;1.77;100.00;97150.28;5049674;28;20032;-78
2022/12/15 12:54:32;;;;;;;1999.90;999.90;;;;;;;1.90;100.00;97143.63;5049674;28;20033;-76
2022/12/15 12:56:58;;;;;;;1999.90;999.90;;;;;;;1.91;100.00;97146.03;5049708;28;20029;-75
2022/12/15 12:59:29;;;;;;;1999.90;999.90;;;;;;;2.03;100.00;97149.38;5050014;28;20029;-77
2022/12/15 13:02:15;;;;;;;1999.90;999.90;;;;;;;2.02;100.00;97142.34;5052516;28;20041;-77
2022/12/15 13:04:48;;;;;;;1999.90;999.90;;;;;;;2.07;100.00;97145.06;5058492;28;20075;-77
2022/12/15 13:07:30;;;;;;;1999.90;999.90;;;;;;;1.98;100.00;97146.63;5057616;28;20112;-77
2022/12/15 13:10:07;;;;;;;1999.90;999.90;;;;;;;2.00;100.00;97146.41;5053900;28;20033;-77
2022/12/15 13:12:35;;;;;;;1999.90;999.90;;;;;;;1.98;100.00;97141.25;5053893;28;20547;-76
2022/12/15 13:15:17;;;;;;;1999.90;999.90;;;;;;;2.04;100.00;97137.50;5053553;28;20036;-76
2022/12/15 13:17:49;;;;;;;1999.90;999.90;;;;;;;2.20;100.00;97135.69;5051256;28;20037;-75
2022/12/15 13:20:25;;;;;;;1999.90;999.90;;;;;;;2.21;100.00;97133.81;5051203;28;20405;-75
2022/12/15 13:22:52;;;;;;;1999.90;999.90;;;;;;;1.99;100.00;97140.19;5065814;28;20047;-74
2022/12/15 13:25:38;;;;;;;1999.90;999.90;;;;;;;1.95;100.00;97141.78;5052118;28;20104;-74
2022/12/15 13:28:25;;;;;;;1999.90;999.90;;;;;;;1.90;100.00;97144.44;5061777;28;20159;-76
2022/12/15 13:31:19;;;;;;;1999.90;999.90;;;;;;;1.95;100.00;97144.47;5055495;28;20060;-74
2022/12/15 13:33:47;;;;;;;1999.90;999.90;;;;;;;1.85;100.00;97138.22;5046089;28;20021;-78